Pamlico — WX6900 — position and weather

sailwx.info

Track history (hours):
 
Tides and Currents Weather Stations Pressure Air Temp Water Temp Dewpoint Dewpoint Depression Visibility Wind Speed Wind Dir Waves Ship Positions

Pamlico

Owner: PCS Phosphate, AURORA, NC. More information available from US FCC via Universal Licensing System and Coast Guard Vessel Documentation Center.

Last reported at 2017-May-25 12:01 UTC. Time now 2017-May-25 12:19 UTC.
Position N 34°43' W 076°42'.

; draft 2 m.

Type: Tug. MMSI: 367361220.

Date/timePositionNaut miles runAvg speedWind from/ knotsBaromVisibWave heightAir tempDewpointWater temp
2017-May-25 12:01N 34°43' W 076°42'0 0.0
2017-May-25 11:31N 34°43' W 076°42'0 0.0
2017-May-25 11:00N 34°43' W 076°42'0 0.1
2017-May-25 10:30N 34°43' W 076°42'0 0.0
2017-May-25 10:00N 34°43' W 076°42'0 0.0
2017-May-25 09:30N 34°43' W 076°42'0 0.0
2017-May-25 09:00N 34°43' W 076°42'0 0.0
2017-May-25 08:31N 34°43' W 076°42'0 0.0
2017-May-25 08:01N 34°43' W 076°42'0 0.0
2017-May-25 07:30N 34°43' W 076°42'0 0.0
2017-May-25 07:00N 34°43' W 076°42'0 0.0
2017-May-25 06:30N 34°43' W 076°42'0 0.0
2017-May-25 06:00N 34°43' W 076°42'0 0.0
2017-May-25 05:30N 34°43' W 076°42'0 0.0
2017-May-25 05:00N 34°43' W 076°42'0 0.0
2017-May-25 04:31N 34°43' W 076°42'0 0.0
2017-May-25 04:01N 34°43' W 076°42'0 0.0
2017-May-25 03:30N 34°43' W 076°42'0 0.0
2017-May-25 03:01N 34°43' W 076°42'0 0.0
2017-May-25 02:30N 34°43' W 076°42'0 0.0
2017-May-25 02:00N 34°43' W 076°42'0 0.0
2017-May-25 01:31N 34°43' W 076°42'0 0.0
2017-May-25 01:01N 34°43' W 076°42'0 0.0
2017-May-25 00:31N 34°43' W 076°42'0 0.0
2017-May-25 00:01N 34°43' W 076°42'0 0.0
2017-May-24 23:31N 34°43' W 076°42'0 0.0
2017-May-24 23:00N 34°43' W 076°42'0 0.0
2017-May-24 22:31N 34°43' W 076°42'0 0.0
2017-May-24 22:01N 34°43' W 076°42'2 4.5
2017-May-24 21:31N 34°45' W 076°40'3 5.7
2017-May-24 21:01N 34°48' W 076°41'3 6.2
2017-May-24 20:30N 34°51' W 076°41'3 6.0
2017-May-24 20:00N 34°54' W 076°41'3 5.8
2017-May-24 19:31N 34°57' W 076°40'1 0.1
2017-May-24 04:32N 34°58' W 076°41'0 7.8
2017-May-24 04:30N 34°58' W 076°41'3 6.7
2017-May-24 04:01N 34°55' W 076°40'3 6.8
2017-May-24 03:30N 34°52' W 076°41'4 7.7
2017-May-24 03:00N 34°48' W 076°41'3 6.9
2017-May-24 02:31N 34°44' W 076°41'1 2.6
2017-May-24 02:00N 34°43' W 076°42'0 0.0
2017-May-24 01:30N 34°43' W 076°42'0 0.0
2017-May-24 01:00N 34°43' W 076°42'0 0.0
2017-May-24 00:30N 34°43' W 076°42'0 0.0
2017-May-24 00:00N 34°43' W 076°42'0 0.0
2017-May-23 23:30N 34°43' W 076°42'0 0.0
2017-May-23 23:01N 34°43' W 076°42'0 0.0
2017-May-23 22:30N 34°43' W 076°42'0 0.0
2017-May-23 22:01N 34°43' W 076°42'0 0.0
2017-May-23 21:30N 34°43' W 076°42'0 0.0
2017-May-23 21:00N 34°43' W 076°42'0 0.0
2017-May-23 20:30N 34°43' W 076°42'0 0.0
2017-May-23 20:00N 34°43' W 076°42'0 0.0
2017-May-23 19:30N 34°43' W 076°42'0 0.0
2017-May-23 19:01N 34°43' W 076°42'0 0.0
2017-May-23 18:31N 34°43' W 076°42'0 0.0
2017-May-23 18:01N 34°43' W 076°42'0 0.0
2017-May-23 17:30N 34°43' W 076°42'0 0.0
2017-May-23 17:00N 34°43' W 076°42'0 0.0
2017-May-23 16:31N 34°43' W 076°42'2 3.3
2017-May-23 16:00N 34°45' W 076°41'3 6.2
2017-May-23 15:30N 34°48' W 076°41'3 5.7
2017-May-23 15:00N 34°51' W 076°41'5 5.1
2017-May-23 13:59N 34°56' W 076°39'3 6.0
2017-May-23 13:30N 34°58' W 076°41'1 0.1
2017-May-22 23:38N 34°57' W 076°40'1 8.3
2017-May-22 23:29N 34°56' W 076°39'4 7.7
2017-May-22 23:00N 34°53' W 076°41'4 8.1
2017-May-22 22:30N 34°49' W 076°41'4 7.9
2017-May-22 22:01N 34°45' W 076°41'2 3.7
2017-May-22 21:31N 34°43' W 076°42'0 0.0
2017-May-22 21:00N 34°43' W 076°42'0 0.0
2017-May-22 20:31N 34°43' W 076°42'0 0.0
2017-May-22 20:01N 34°43' W 076°42'0 0.0
2017-May-22 19:31N 34°43' W 076°42'0 0.0
2017-May-22 19:01N 34°43' W 076°42'0 0.0
2017-May-22 18:31N 34°43' W 076°42'0 0.0
2017-May-22 18:00N 34°43' W 076°42'0 0.0
2017-May-22 17:30N 34°43' W 076°42'0 0.0
2017-May-22 17:01N 34°43' W 076°42'0 0.0
2017-May-22 16:31N 34°43' W 076°42'0 0.0
2017-May-22 16:01N 34°43' W 076°42'0 0.0
2017-May-22 15:31N 34°43' W 076°42'0 0.0
2017-May-22 15:00N 34°43' W 076°42'0 0.0
2017-May-22 14:00N 34°43' W 076°42'0 0.0
2017-May-22 13:30N 34°43' W 076°42'0 0.0
2017-May-22 13:01N 34°43' W 076°42'0 0.0
2017-May-22 12:31N 34°43' W 076°42'0 0.0
2017-May-22 12:00N 34°43' W 076°42'0 0.0
2017-May-22 11:31N 34°43' W 076°42'0 0.0
2017-May-22 11:00N 34°43' W 076°42'0 0.0
2017-May-22 10:30N 34°43' W 076°42'0 0.0
2017-May-22 10:00N 34°43' W 076°42'0 0.1
2017-May-22 09:30N 34°43' W 076°42'3 5.6
2017-May-22 09:01N 34°46' W 076°41'3 5.5
2017-May-22 08:30N 34°49' W 076°41'2 4.9
2017-May-22 08:01N 34°51' W 076°41'3 5.0
2017-May-22 07:25N 34°54' W 076°41'3 5.5
2017-May-22 06:55N 34°57' W 076°40'18 0.4
2017-May-20 06:21N 35°14' W 076°35'7 7.3
2017-May-20 05:21N 35°09' W 076°30'3 8.9
2017-May-20 05:00N 35°06' W 076°31'5 9.0
2017-May-20 04:30N 35°03' W 076°35'6 9.2
2017-May-20 03:54N 34°59' W 076°41'3 7.0
2017-May-20 03:30N 34°57' W 076°40'3 6.2
2017-May-20 03:00N 34°54' W 076°41'3 6.2
2017-May-20 02:30N 34°51' W 076°41'3 6.6
2017-May-20 02:01N 34°47' W 076°41'3 6.8
2017-May-20 01:31N 34°44' W 076°41'1 1.7
2017-May-20 01:00N 34°43' W 076°42'0 0.3
2017-May-20 00:30N 34°43' W 076°42'3 5.7
2017-May-20 00:00N 34°46' W 076°41'3 5.6
2017-May-19 23:31N 34°49' W 076°41'3 5.3
2017-May-19 23:01N 34°52' W 076°41'2 4.6
2017-May-19 22:29N 34°54' W 076°41'3 5.0
2017-May-19 21:55N 34°57' W 076°40'  
2017-May-17 06:25N 35°21' W 076°36'3 6.8
2017-May-17 05:58N 35°18' W 076°37'4 6.7
2017-May-17 05:23N 35°15' W 076°35'2 5.8
2017-May-17 05:00N 35°12' W 076°35'6 7.9
2017-May-17 04:17N 35°09' W 076°30'2 8.5
2017-May-17 04:00N 35°06' W 076°31'4 8.3
2017-May-17 03:30N 35°03' W 076°34'4 8.5
2017-May-17 03:00N 35°01' W 076°39'4 7.2
2017-May-17 02:30N 34°58' W 076°41'3 6.7
2017-May-17 02:00N 34°55' W 076°40'3 6.0
2017-May-17 01:30N 34°52' W 076°42'3 6.1
2017-May-17 01:00N 34°49' W 076°41'3 6.4
2017-May-17 00:30N 34°46' W 076°41'3 5.8
2017-May-17 00:00N 34°43' W 076°42'0 0.0
2017-May-16 23:31N 34°43' W 076°42'1 2.3
2017-May-16 23:00N 34°44' W 076°41'3 6.0
2017-May-16 22:31N 34°47' W 076°41'3 6.6
2017-May-16 22:01N 34°51' W 076°41'4 6.2
2017-May-16 21:26N 34°54' W 076°41'3 5.9
2017-May-16 20:58N 34°57' W 076°40'1 0.1
2017-May-16 09:08N 34°58' W 076°41'1 7.5
2017-May-16 08:58N 34°57' W 076°40'3 6.1
2017-May-16 08:27N 34°54' W 076°41'3 6.9
2017-May-16 08:01N 34°51' W 076°41'4 7.5
2017-May-16 07:31N 34°47' W 076°41'3 6.3
2017-May-16 07:00N 34°44' W 076°41'1 1.1
2017-May-16 06:30N 34°43' W 076°42'0 0.1
2017-May-16 06:01N 34°43' W 076°42'0 0.1
2017-May-16 05:31N 34°43' W 076°42'2 4.1
2017-May-16 05:01N 34°45' W 076°41'3 5.5
2017-May-16 04:30N 34°48' W 076°41'2 4.4
2017-May-16 04:00N 34°50' W 076°41'2 4.4
2017-May-16 03:30N 34°52' W 076°42'2 4.1
2017-May-16 03:00N 34°54' W 076°40'3 5.3
2017-May-16 02:30N 34°57' W 076°40'7 5.4
2017-May-16 01:08N 35°03' W 076°35'7 0.6
2017-May-15 12:25N 34°57' W 076°41'  
Track history (hours):
 
Tides and Currents Weather Stations Pressure Air Temp Water Temp Dewpoint Dewpoint Depression Visibility Wind Speed Wind Dir Waves Ship Positions

Pamlico

Owner: PCS Phosphate, AURORA, NC. More information available from US FCC via Universal Licensing System and Coast Guard Vessel Documentation Center.

Last reported at 2017-May-25 12:01 UTC. Time now 2017-May-25 12:19 UTC.
Position N 34°43' W 076°42'.

; draft 2 m.

Type: Tug. MMSI: 367361220.

Date/timePositionNaut miles runAvg speedWind from/ knotsBaromVisibWave heightAir tempDewpointWater temp
2017-May-25 12:01N 34°43' W 076°42'0 0.0
2017-May-25 11:31N 34°43' W 076°42'0 0.0
2017-May-25 11:00N 34°43' W 076°42'0 0.1
2017-May-25 10:30N 34°43' W 076°42'0 0.0
2017-May-25 10:00N 34°43' W 076°42'0 0.0
2017-May-25 09:30N 34°43' W 076°42'0 0.0
2017-May-25 09:00N 34°43' W 076°42'0 0.0
2017-May-25 08:31N 34°43' W 076°42'0 0.0
2017-May-25 08:01N 34°43' W 076°42'0 0.0
2017-May-25 07:30N 34°43' W 076°42'0 0.0
2017-May-25 07:00N 34°43' W 076°42'0 0.0
2017-May-25 06:30N 34°43' W 076°42'0 0.0
2017-May-25 06:00N 34°43' W 076°42'0 0.0
2017-May-25 05:30N 34°43' W 076°42'0 0.0
2017-May-25 05:00N 34°43' W 076°42'0 0.0
2017-May-25 04:31N 34°43' W 076°42'0 0.0
2017-May-25 04:01N 34°43' W 076°42'0 0.0
2017-May-25 03:30N 34°43' W 076°42'0 0.0
2017-May-25 03:01N 34°43' W 076°42'0 0.0
2017-May-25 02:30N 34°43' W 076°42'0 0.0
2017-May-25 02:00N 34°43' W 076°42'0 0.0
2017-May-25 01:31N 34°43' W 076°42'0 0.0
2017-May-25 01:01N 34°43' W 076°42'0 0.0
2017-May-25 00:31N 34°43' W 076°42'0 0.0
2017-May-25 00:01N 34°43' W 076°42'0 0.0
2017-May-24 23:31N 34°43' W 076°42'0 0.0
2017-May-24 23:00N 34°43' W 076°42'0 0.0
2017-May-24 22:31N 34°43' W 076°42'0 0.0
2017-May-24 22:01N 34°43' W 076°42'2 4.5
2017-May-24 21:31N 34°45' W 076°40'3 5.7
2017-May-24 21:01N 34°48' W 076°41'3 6.2
2017-May-24 20:30N 34°51' W 076°41'3 6.0
2017-May-24 20:00N 34°54' W 076°41'3 5.8
2017-May-24 19:31N 34°57' W 076°40'1 0.1
2017-May-24 04:32N 34°58' W 076°41'0 7.8
2017-May-24 04:30N 34°58' W 076°41'3 6.7
2017-May-24 04:01N 34°55' W 076°40'3 6.8
2017-May-24 03:30N 34°52' W 076°41'4 7.7
2017-May-24 03:00N 34°48' W 076°41'3 6.9
2017-May-24 02:31N 34°44' W 076°41'1 2.6
2017-May-24 02:00N 34°43' W 076°42'0 0.0
2017-May-24 01:30N 34°43' W 076°42'0 0.0
2017-May-24 01:00N 34°43' W 076°42'0 0.0
2017-May-24 00:30N 34°43' W 076°42'0 0.0
2017-May-24 00:00N 34°43' W 076°42'0 0.0
2017-May-23 23:30N 34°43' W 076°42'0 0.0
2017-May-23 23:01N 34°43' W 076°42'0 0.0
2017-May-23 22:30N 34°43' W 076°42'0 0.0
2017-May-23 22:01N 34°43' W 076°42'0 0.0
2017-May-23 21:30N 34°43' W 076°42'0 0.0
2017-May-23 21:00N 34°43' W 076°42'0 0.0
2017-May-23 20:30N 34°43' W 076°42'0 0.0
2017-May-23 20:00N 34°43' W 076°42'0 0.0
2017-May-23 19:30N 34°43' W 076°42'0 0.0
2017-May-23 19:01N 34°43' W 076°42'0 0.0
2017-May-23 18:31N 34°43' W 076°42'0 0.0
2017-May-23 18:01N 34°43' W 076°42'0 0.0
2017-May-23 17:30N 34°43' W 076°42'0 0.0
2017-May-23 17:00N 34°43' W 076°42'0 0.0
2017-May-23 16:31N 34°43' W 076°42'2 3.3
2017-May-23 16:00N 34°45' W 076°41'3 6.2
2017-May-23 15:30N 34°48' W 076°41'3 5.7
2017-May-23 15:00N 34°51' W 076°41'5 5.1
2017-May-23 13:59N 34°56' W 076°39'3 6.0
2017-May-23 13:30N 34°58' W 076°41'1 0.1
2017-May-22 23:38N 34°57' W 076°40'1 8.3
2017-May-22 23:29N 34°56' W 076°39'4 7.7
2017-May-22 23:00N 34°53' W 076°41'4 8.1
2017-May-22 22:30N 34°49' W 076°41'4 7.9
2017-May-22 22:01N 34°45' W 076°41'2 3.7
2017-May-22 21:31N 34°43' W 076°42'0 0.0
2017-May-22 21:00N 34°43' W 076°42'0 0.0
2017-May-22 20:31N 34°43' W 076°42'0 0.0
2017-May-22 20:01N 34°43' W 076°42'0 0.0
2017-May-22 19:31N 34°43' W 076°42'0 0.0
2017-May-22 19:01N 34°43' W 076°42'0 0.0
2017-May-22 18:31N 34°43' W 076°42'0 0.0
2017-May-22 18:00N 34°43' W 076°42'0 0.0
2017-May-22 17:30N 34°43' W 076°42'0 0.0
2017-May-22 17:01N 34°43' W 076°42'0 0.0
2017-May-22 16:31N 34°43' W 076°42'0 0.0
2017-May-22 16:01N 34°43' W 076°42'0 0.0
2017-May-22 15:31N 34°43' W 076°42'0 0.0
2017-May-22 15:00N 34°43' W 076°42'0 0.0
2017-May-22 14:00N 34°43' W 076°42'0 0.0
2017-May-22 13:30N 34°43' W 076°42'0 0.0
2017-May-22 13:01N 34°43' W 076°42'0 0.0
2017-May-22 12:31N 34°43' W 076°42'0 0.0
2017-May-22 12:00N 34°43' W 076°42'0 0.0
2017-May-22 11:31N 34°43' W 076°42'0 0.0
2017-May-22 11:00N 34°43' W 076°42'0 0.0
2017-May-22 10:30N 34°43' W 076°42'0 0.0
2017-May-22 10:00N 34°43' W 076°42'0 0.1
2017-May-22 09:30N 34°43' W 076°42'3 5.6
2017-May-22 09:01N 34°46' W 076°41'3 5.5
2017-May-22 08:30N 34°49' W 076°41'2 4.9
2017-May-22 08:01N 34°51' W 076°41'3 5.0
2017-May-22 07:25N 34°54' W 076°41'3 5.5
2017-May-22 06:55N 34°57' W 076°40'18 0.4
2017-May-20 06:21N 35°14' W 076°35'7 7.3
2017-May-20 05:21N 35°09' W 076°30'3 8.9
2017-May-20 05:00N 35°06' W 076°31'5 9.0
2017-May-20 04:30N 35°03' W 076°35'6 9.2
2017-May-20 03:54N 34°59' W 076°41'3 7.0
2017-May-20 03:30N 34°57' W 076°40'3 6.2
2017-May-20 03:00N 34°54' W 076°41'3 6.2
2017-May-20 02:30N 34°51' W 076°41'3 6.6
2017-May-20 02:01N 34°47' W 076°41'3 6.8
2017-May-20 01:31N 34°44' W 076°41'1 1.7
2017-May-20 01:00N 34°43' W 076°42'0 0.3
2017-May-20 00:30N 34°43' W 076°42'3 5.7
2017-May-20 00:00N 34°46' W 076°41'3 5.6
2017-May-19 23:31N 34°49' W 076°41'3 5.3
2017-May-19 23:01N 34°52' W 076°41'2 4.6
2017-May-19 22:29N 34°54' W 076°41'3 5.0
2017-May-19 21:55N 34°57' W 076°40'  
2017-May-17 06:25N 35°21' W 076°36'3 6.8
2017-May-17 05:58N 35°18' W 076°37'4 6.7
2017-May-17 05:23N 35°15' W 076°35'2 5.8
2017-May-17 05:00N 35°12' W 076°35'6 7.9
2017-May-17 04:17N 35°09' W 076°30'2 8.5
2017-May-17 04:00N 35°06' W 076°31'4 8.3
2017-May-17 03:30N 35°03' W 076°34'4 8.5
2017-May-17 03:00N 35°01' W 076°39'4 7.2
2017-May-17 02:30N 34°58' W 076°41'3 6.7
2017-May-17 02:00N 34°55' W 076°40'3 6.0
2017-May-17 01:30N 34°52' W 076°42'3 6.1
2017-May-17 01:00N 34°49' W 076°41'3 6.4
2017-May-17 00:30N 34°46' W 076°41'3 5.8
2017-May-17 00:00N 34°43' W 076°42'0 0.0
2017-May-16 23:31N 34°43' W 076°42'1 2.3
2017-May-16 23:00N 34°44' W 076°41'3 6.0
2017-May-16 22:31N 34°47' W 076°41'3 6.6
2017-May-16 22:01N 34°51' W 076°41'4 6.2
2017-May-16 21:26N 34°54' W 076°41'3 5.9
2017-May-16 20:58N 34°57' W 076°40'1 0.1
2017-May-16 09:08N 34°58' W 076°41'1 7.5
2017-May-16 08:58N 34°57' W 076°40'3 6.1
2017-May-16 08:27N 34°54' W 076°41'3 6.9
2017-May-16 08:01N 34°51' W 076°41'4 7.5
2017-May-16 07:31N 34°47' W 076°41'3 6.3
2017-May-16 07:00N 34°44' W 076°41'1 1.1
2017-May-16 06:30N 34°43' W 076°42'0 0.1
2017-May-16 06:01N 34°43' W 076°42'0 0.1
2017-May-16 05:31N 34°43' W 076°42'2 4.1
2017-May-16 05:01N 34°45' W 076°41'3 5.5
2017-May-16 04:30N 34°48' W 076°41'2 4.4
2017-May-16 04:00N 34°50' W 076°41'2 4.4
2017-May-16 03:30N 34°52' W 076°42'2 4.1
2017-May-16 03:00N 34°54' W 076°40'3 5.3
2017-May-16 02:30N 34°57' W 076°40'7 5.4
2017-May-16 01:08N 35°03' W 076°35'7 0.6
2017-May-15 12:25N 34°57' W 076°41'  

Dump ship's entire track history